createdAt,value
2023-05-17T00:00:28.485Z,59.13
2023-05-17T00:02:55.221Z,59.13
2023-05-17T00:05:22.040Z,58.73
2023-05-17T00:07:49.626Z,58.84
2023-05-17T00:10:16.376Z,58.66
2023-05-17T00:12:43.104Z,58.26
2023-05-17T00:15:10.314Z,58.31
2023-05-17T00:17:38.072Z,58.26
2023-05-17T00:20:05.837Z,58.07
2023-05-17T00:22:32.486Z,58.01
2023-05-17T00:24:59.308Z,57.93
2023-05-17T00:27:26.078Z,58.45
2023-05-17T00:29:52.774Z,60.27
2023-05-17T00:32:19.471Z,59.57
2023-05-17T00:34:46.157Z,59.26
2023-05-17T00:37:12.846Z,59.06
2023-05-17T00:39:39.626Z,58.70
2023-05-17T00:42:06.543Z,58.95
2023-05-17T00:44:33.286Z,59.38
2023-05-17T00:47:00.129Z,59.15
2023-05-17T00:49:27.235Z,59.21
2023-05-17T00:51:54.450Z,59.22
2023-05-17T00:54:22.094Z,59.21
2023-05-17T00:56:49.730Z,60.08
2023-05-17T00:59:17.595Z,60.82
2023-05-17T01:01:44.694Z,60.59
2023-05-17T01:04:12.699Z,60.96
2023-05-17T01:06:40.392Z,61.10
2023-05-17T01:09:08.237Z,61.03
2023-05-17T01:11:53.223Z,60.90
2023-05-17T01:14:25.894Z,60.81
2023-05-17T01:17:01.253Z,60.89
2023-05-17T01:19:45.306Z,60.82
2023-05-17T01:22:31.614Z,60.61
2023-05-17T01:25:01.223Z,60.71
2023-05-17T01:27:30.209Z,60.52
2023-05-17T01:29:57.937Z,60.97
2023-05-17T01:32:25.430Z,61.17
2023-05-17T01:34:52.231Z,61.08
2023-05-17T01:37:19.020Z,60.90
2023-05-17T01:39:46.386Z,60.68
2023-05-17T01:42:22.968Z,60.64
2023-05-17T01:45:04.745Z,60.49
2023-05-17T01:48:13.931Z,62.13
2023-05-17T01:50:42.731Z,61.79
2023-05-17T01:53:15.136Z,61.44
2023-05-17T01:55:44.909Z,61.29
2023-05-17T01:58:12.866Z,61.53
2023-05-17T02:00:43.681Z,62.23
2023-05-17T02:03:17.890Z,62.27
2023-05-17T02:05:44.954Z,62.72
2023-05-17T02:08:12.157Z,62.53
2023-05-17T02:10:39.171Z,62.45
2023-05-17T02:13:06.040Z,62.69
2023-05-17T02:15:32.956Z,62.46
2023-05-17T02:17:59.788Z,62.43
2023-05-17T02:20:26.532Z,62.31
2023-05-17T02:22:53.204Z,62.16
2023-05-17T02:25:21.000Z,61.89
2023-05-17T02:27:47.709Z,61.70
2023-05-17T02:30:18.019Z,62.08
2023-05-17T02:32:45.346Z,61.71
2023-05-17T02:35:13.902Z,61.95
2023-05-17T02:37:40.719Z,62.35
2023-05-17T02:40:09.745Z,62.54
2023-05-17T02:42:36.997Z,62.53
2023-05-17T02:45:04.313Z,62.16
2023-05-17T02:47:31.290Z,61.80
2023-05-17T02:49:58.069Z,62.03
2023-05-17T02:52:24.952Z,61.90
2023-05-17T02:54:51.807Z,61.75
2023-05-17T02:57:18.663Z,61.83
2023-05-17T02:59:45.794Z,61.27
2023-05-17T03:02:12.986Z,61.07
2023-05-17T03:04:39.816Z,61.13
2023-05-17T03:07:07.496Z,60.96
2023-05-17T03:09:35.032Z,61.14
2023-05-17T03:12:02.026Z,61.56
2023-05-17T03:14:31.352Z,61.53
2023-05-17T03:16:58.107Z,61.48
2023-05-17T03:19:25.975Z,61.60
2023-05-17T03:21:53.164Z,61.72
2023-05-17T03:24:20.646Z,61.58
2023-05-17T03:26:47.978Z,61.74
2023-05-17T03:29:14.823Z,62.08
2023-05-17T03:31:43.873Z,62.20
2023-05-17T03:34:11.062Z,62.15
2023-05-17T03:36:40.311Z,62.36
2023-05-17T03:39:07.358Z,63.14
2023-05-17T03:41:35.146Z,62.56
2023-05-17T03:44:01.968Z,62.47
2023-05-17T03:46:28.825Z,64.60
2023-05-17T03:48:55.611Z,64.50
2023-05-17T03:51:22.564Z,64.87
2023-05-17T03:53:57.254Z,64.66
2023-05-17T03:56:24.927Z,64.98
2023-05-17T03:58:51.819Z,64.95
2023-05-17T04:01:20.282Z,64.84
2023-05-17T04:03:48.025Z,65.32
2023-05-17T04:06:15.201Z,65.16
2023-05-17T04:08:42.375Z,64.90
2023-05-17T04:11:13.831Z,65.17
2023-05-17T04:13:42.031Z,64.72
2023-05-17T04:16:09.999Z,65.83
2023-05-17T04:18:39.145Z,64.85
2023-05-17T04:21:06.440Z,64.58
2023-05-17T04:23:35.112Z,64.66
2023-05-17T04:26:03.269Z,64.23
2023-05-17T04:28:32.553Z,64.09
2023-05-17T04:31:00.304Z,64.16
2023-05-17T04:33:27.508Z,63.96
2023-05-17T04:35:55.226Z,63.70
2023-05-17T04:38:23.831Z,63.59
2023-05-17T04:40:51.205Z,64.08
2023-05-17T04:43:18.280Z,63.94
2023-05-17T04:45:45.279Z,63.66
2023-05-17T04:48:12.152Z,63.74
2023-05-17T04:50:38.986Z,63.68
2023-05-17T04:53:05.827Z,63.78
2023-05-17T04:55:35.322Z,63.68
2023-05-17T04:58:02.096Z,63.30
2023-05-17T05:00:29.922Z,63.22
2023-05-17T05:03:04.663Z,62.64
2023-05-17T05:05:31.677Z,62.65
2023-05-17T05:07:58.789Z,62.13
2023-05-17T05:10:28.688Z,61.40
2023-05-17T05:12:56.190Z,61.59
2023-05-17T05:15:23.463Z,59.84
2023-05-17T05:17:57.633Z,59.73
2023-05-17T05:20:27.171Z,58.81
2023-05-17T05:22:57.355Z,58.73
2023-05-17T05:25:24.341Z,57.28
2023-05-17T05:27:51.095Z,56.37
2023-05-17T05:30:22.150Z,56.82
2023-05-17T05:32:51.772Z,55.40
2023-05-17T05:35:18.997Z,55.24
2023-05-17T05:37:46.033Z,54.48
2023-05-17T05:40:13.712Z,54.80
2023-05-17T05:42:41.484Z,53.78
2023-05-17T05:45:08.909Z,53.02
2023-05-17T05:47:35.800Z,53.09
2023-05-17T05:50:03.256Z,52.58
2023-05-17T05:52:31.692Z,52.38
2023-05-17T05:54:58.580Z,51.85
2023-05-17T05:57:25.400Z,51.48
2023-05-17T05:59:52.162Z,50.70
2023-05-17T06:02:19.808Z,49.67
2023-05-17T06:04:48.197Z,50.14
2023-05-17T06:07:15.697Z,49.86
2023-05-17T06:09:42.666Z,49.34
2023-05-17T06:12:09.652Z,49.16
2023-05-17T06:14:37.572Z,48.93
2023-05-17T06:17:04.912Z,49.03
2023-05-17T06:19:31.791Z,48.92
2023-05-17T06:21:58.713Z,49.11
2023-05-17T06:24:25.554Z,48.90
2023-05-17T06:26:52.247Z,49.20
2023-05-17T06:29:18.906Z,48.05
2023-05-17T06:31:45.621Z,47.96
2023-05-17T06:34:12.353Z,47.97
2023-05-17T06:36:39.060Z,47.13
2023-05-17T06:39:05.828Z,47.78
2023-05-17T06:41:32.623Z,48.01
2023-05-17T06:43:59.569Z,48.49
2023-05-17T06:46:26.309Z,47.46
2023-05-17T06:48:53.173Z,46.29
2023-05-17T06:51:19.994Z,45.75
2023-05-17T06:53:46.714Z,44.84
2023-05-17T06:56:14.552Z,44.66
2023-05-17T06:58:41.383Z,44.07
2023-05-17T07:01:08.108Z,43.94
2023-05-17T07:03:35.798Z,43.19
2023-05-17T07:06:03.392Z,42.96
2023-05-17T07:08:30.209Z,42.09
2023-05-17T07:10:57.090Z,41.84
2023-05-17T07:13:23.771Z,41.84
2023-05-17T07:15:50.627Z,41.41
2023-05-17T07:18:17.785Z,42.04
2023-05-17T07:20:44.575Z,41.66
2023-05-17T07:23:11.372Z,40.70
2023-05-17T07:25:40.336Z,41.01
2023-05-17T07:28:07.212Z,39.85
2023-05-17T07:30:34.071Z,38.99
2023-05-17T07:33:00.854Z,39.11
2023-05-17T07:35:27.748Z,39.77
2023-05-17T07:37:54.509Z,41.43
2023-05-17T07:40:22.000Z,42.09
2023-05-17T07:42:48.804Z,41.55
2023-05-17T07:45:16.037Z,41.29
2023-05-17T07:47:42.843Z,41.26
2023-05-17T07:50:10.113Z,41.84
2023-05-17T07:52:36.793Z,41.55
2023-05-17T07:55:05.803Z,41.59
2023-05-17T07:57:32.598Z,41.65
2023-05-17T07:59:59.303Z,41.31
2023-05-17T08:02:26.243Z,41.82
2023-05-17T08:04:53.087Z,41.82
2023-05-17T08:07:20.065Z,42.56
2023-05-17T08:09:46.962Z,42.50
2023-05-17T08:12:15.761Z,42.00
2023-05-17T08:14:42.436Z,41.69
2023-05-17T08:17:09.105Z,41.01
2023-05-17T08:19:36.281Z,40.91
2023-05-17T08:22:03.493Z,40.62
2023-05-17T08:24:30.197Z,41.02
2023-05-17T08:26:57.104Z,40.89
2023-05-17T08:29:26.810Z,40.65
2023-05-17T08:31:57.942Z,40.79
2023-05-17T08:34:24.662Z,41.95
2023-05-17T08:36:51.678Z,42.61
2023-05-17T08:39:18.474Z,42.50
2023-05-17T08:41:47.264Z,42.79
2023-05-17T08:44:16.644Z,43.29
2023-05-17T08:46:44.345Z,44.04
2023-05-17T08:49:12.983Z,43.65
2023-05-17T08:51:42.216Z,44.52
2023-05-17T08:54:08.968Z,44.12
2023-05-17T08:56:42.469Z,44.46
2023-05-17T08:59:13.492Z,44.72
2023-05-17T09:01:42.642Z,45.29
2023-05-17T09:04:12.525Z,45.98
2023-05-17T09:06:39.368Z,45.86
2023-05-17T09:09:07.496Z,45.71
2023-05-17T09:11:34.171Z,45.38
2023-05-17T09:14:02.876Z,45.27
2023-05-17T09:16:37.227Z,45.05
2023-05-17T09:19:06.268Z,43.99
2023-05-17T09:21:34.128Z,42.52
2023-05-17T09:26:42.471Z,34.69
2023-05-17T09:29:15.133Z,31.31
2023-05-17T09:31:43.317Z,32.43
2023-05-17T09:34:10.453Z,33.85
2023-05-17T09:36:42.004Z,33.87
2023-05-17T09:39:13.459Z,36.11
2023-05-17T09:41:42.974Z,37.92
2023-05-17T09:44:10.926Z,39.61
2023-05-17T09:46:48.752Z,39.92
2023-05-17T09:49:16.985Z,40.38
2023-05-17T09:51:45.558Z,42.25
2023-05-17T09:54:12.584Z,43.20
2023-05-17T09:56:39.777Z,40.70
2023-05-17T09:59:16.560Z,36.65
2023-05-17T10:01:45.146Z,34.37
2023-05-17T10:04:13.813Z,35.36
2023-05-17T10:09:15.623Z,37.22
2023-05-17T10:11:46.245Z,37.88
2023-05-17T10:14:27.103Z,39.09
2023-05-17T10:16:54.661Z,39.79
2023-05-17T10:19:21.813Z,40.15
2023-05-17T10:21:51.592Z,40.62
2023-05-17T10:24:21.373Z,40.13
2023-05-17T10:26:50.502Z,40.91
2023-05-17T10:29:20.654Z,40.48
2023-05-17T10:31:48.748Z,40.80
2023-05-17T10:34:17.107Z,41.91
2023-05-17T10:36:44.349Z,41.20
2023-05-17T10:39:11.838Z,41.10
2023-05-17T10:41:43.010Z,40.75
2023-05-17T10:44:13.661Z,40.72
2023-05-17T10:46:40.727Z,40.08
2023-05-17T10:49:07.773Z,39.41
2023-05-17T10:51:37.842Z,40.18
2023-05-17T10:54:12.948Z,39.65
2023-05-17T10:56:41.791Z,40.16
2023-05-17T10:59:26.722Z,40.81
2023-05-17T11:02:00.829Z,41.00
2023-05-17T11:04:36.726Z,41.43
2023-05-17T11:07:19.223Z,40.25
2023-05-17T11:09:49.334Z,40.82
2023-05-17T11:12:17.246Z,41.15
2023-05-17T11:14:44.669Z,40.71
2023-05-17T11:17:17.964Z,40.55
2023-05-17T11:19:57.084Z,39.37
2023-05-17T11:22:25.318Z,39.01
2023-05-17T11:24:53.848Z,38.73
2023-05-17T11:27:27.176Z,38.59
2023-05-17T11:30:00.258Z,37.87
2023-05-17T11:32:32.565Z,38.48
2023-05-17T11:35:00.673Z,38.82
2023-05-17T11:37:31.547Z,38.58
2023-05-17T11:40:06.854Z,38.62
2023-05-17T11:42:34.394Z,40.14
2023-05-17T11:45:02.075Z,39.77
2023-05-17T11:47:29.668Z,40.40
2023-05-17T11:50:01.165Z,40.40
2023-05-17T11:52:29.375Z,39.96
2023-05-17T11:54:58.492Z,39.83
2023-05-17T11:57:30.610Z,40.07
2023-05-17T12:00:02.180Z,40.34
2023-05-17T12:02:39.568Z,38.19
2023-05-17T12:05:09.148Z,34.87
2023-05-17T12:07:37.359Z,32.58
2023-05-17T12:10:05.887Z,29.74
2023-05-17T12:12:32.575Z,30.44
2023-05-17T12:14:59.483Z,30.11
2023-05-17T12:17:35.438Z,30.95
2023-05-17T12:20:09.848Z,30.63
2023-05-17T12:22:52.440Z,28.64
2023-05-17T12:25:25.377Z,29.37
2023-05-17T12:27:52.557Z,30.88
2023-05-17T12:30:19.759Z,31.58
2023-05-17T12:32:47.584Z,31.94
2023-05-17T12:35:14.581Z,32.13
2023-05-17T12:37:41.413Z,31.03
2023-05-17T12:40:09.221Z,31.88
2023-05-17T12:42:36.450Z,31.88
2023-05-17T12:45:03.331Z,31.69
2023-05-17T12:47:33.214Z,31.44
2023-05-17T12:50:01.036Z,32.02
2023-05-17T12:52:34.126Z,31.27
2023-05-17T12:55:04.334Z,31.25
2023-05-17T12:57:31.206Z,30.69
2023-05-17T12:59:58.022Z,32.01
2023-05-17T13:02:24.993Z,31.51
2023-05-17T13:04:51.955Z,33.12
2023-05-17T13:07:26.350Z,32.29
2023-05-17T13:09:53.180Z,32.68
2023-05-17T13:12:24.321Z,32.17
2023-05-17T13:14:53.338Z,33.14
2023-05-17T13:17:24.775Z,31.69
2023-05-17T13:19:51.860Z,31.34
2023-05-17T13:22:19.111Z,32.76
2023-05-17T13:24:45.885Z,32.48
2023-05-17T13:27:13.100Z,31.36
2023-05-17T13:29:42.187Z,31.92
2023-05-17T13:32:11.698Z,31.75
2023-05-17T13:34:38.758Z,31.19
2023-05-17T13:37:08.660Z,32.00
2023-05-17T13:39:37.270Z,31.50
2023-05-17T13:42:04.521Z,31.84
2023-05-17T13:44:31.306Z,31.82
2023-05-17T13:46:58.032Z,32.07
2023-05-17T13:49:24.670Z,31.51
2023-05-17T13:51:51.808Z,32.35
2023-05-17T13:54:20.577Z,32.02
2023-05-17T13:56:47.298Z,32.02
2023-05-17T13:59:14.007Z,32.36
2023-05-17T14:01:41.454Z,32.01
2023-05-17T14:04:08.293Z,32.08
2023-05-17T14:06:35.072Z,32.43
2023-05-17T14:09:01.947Z,32.59
2023-05-17T14:11:28.665Z,33.28
2023-05-17T14:13:55.466Z,33.84
2023-05-17T14:16:22.809Z,33.99
2023-05-17T14:18:50.005Z,32.74
2023-05-17T14:21:16.964Z,33.00
2023-05-17T14:23:43.774Z,32.29
2023-05-17T14:26:11.294Z,32.14
2023-05-17T14:28:39.251Z,30.65
2023-05-17T14:31:07.488Z,30.22
2023-05-17T14:33:34.662Z,30.75
2023-05-17T14:36:01.597Z,30.50
2023-05-17T14:38:28.344Z,30.31
2023-05-17T14:40:56.163Z,30.81
2023-05-17T14:43:23.372Z,30.60
2023-05-17T14:45:50.137Z,30.90
2023-05-17T14:48:17.022Z,31.88
2023-05-17T14:50:43.800Z,32.45
2023-05-17T14:53:10.876Z,31.83
2023-05-17T14:55:37.896Z,31.63
2023-05-17T14:58:04.553Z,30.79
2023-05-17T15:00:31.236Z,31.29
2023-05-17T15:02:58.185Z,31.38
2023-05-17T15:05:25.704Z,32.00
2023-05-17T15:07:52.619Z,32.65
2023-05-17T15:10:19.470Z,32.56
2023-05-17T15:12:47.369Z,32.66
2023-05-17T15:15:14.274Z,32.70
2023-05-17T15:17:41.493Z,32.79
2023-05-17T15:20:08.960Z,32.00
2023-05-17T15:22:36.626Z,30.03
2023-05-17T15:25:04.200Z,30.71
2023-05-17T15:27:30.915Z,31.30
2023-05-17T15:29:57.686Z,31.71
2023-05-17T15:32:24.394Z,31.70
2023-05-17T15:34:52.569Z,31.82
2023-05-17T15:37:19.362Z,31.08
2023-05-17T15:39:46.440Z,32.51
2023-05-17T15:42:13.178Z,32.65
2023-05-17T15:44:39.884Z,31.86
2023-05-17T15:47:06.677Z,30.69
2023-05-17T15:49:33.660Z,31.58
2023-05-17T15:52:00.406Z,32.03
2023-05-17T15:54:27.098Z,31.39
2023-05-17T15:56:53.836Z,31.31
2023-05-17T15:59:20.746Z,30.73
2023-05-17T16:01:47.459Z,31.20
2023-05-17T16:04:14.346Z,31.09
2023-05-17T16:06:41.266Z,31.05
2023-05-17T16:09:08.535Z,30.83
2023-05-17T16:11:35.280Z,30.75
2023-05-17T16:14:02.075Z,31.02
2023-05-17T16:16:28.722Z,30.75
2023-05-17T16:18:55.899Z,30.85
2023-05-17T16:21:22.660Z,31.64
2023-05-17T16:23:49.341Z,32.45
2023-05-17T16:26:18.770Z,31.00
2023-05-17T16:28:45.701Z,30.94
2023-05-17T16:31:12.614Z,31.73
2023-05-17T16:33:41.492Z,31.75
2023-05-17T16:36:08.899Z,31.30
2023-05-17T16:38:35.842Z,31.83
2023-05-17T16:41:03.347Z,31.99
2023-05-17T16:43:30.921Z,31.81
2023-05-17T16:45:57.645Z,32.13
2023-05-17T16:48:24.498Z,32.17
2023-05-17T16:50:51.600Z,33.11
2023-05-17T16:53:18.573Z,32.08
2023-05-17T16:55:45.387Z,33.33
2023-05-17T16:58:12.155Z,32.99
2023-05-17T17:00:39.011Z,33.07
2023-05-17T17:03:08.484Z,32.51
2023-05-17T17:05:36.479Z,32.70
2023-05-17T17:08:03.478Z,33.00
2023-05-17T17:10:30.289Z,33.01
2023-05-17T17:12:57.204Z,33.70
2023-05-17T17:15:24.955Z,33.29
2023-05-17T17:17:52.228Z,33.25
2023-05-17T17:20:19.695Z,32.51
2023-05-17T17:22:46.588Z,32.21
2023-05-17T17:25:13.379Z,32.86
2023-05-17T17:27:40.287Z,33.15
2023-05-17T17:30:07.673Z,32.93
2023-05-17T17:32:34.472Z,33.53
2023-05-17T17:35:01.428Z,33.37
2023-05-17T17:37:28.597Z,33.34
2023-05-17T17:39:55.320Z,33.65
2023-05-17T17:42:22.139Z,33.37
2023-05-17T17:44:49.015Z,33.99
2023-05-17T17:47:15.880Z,34.21
2023-05-17T17:49:42.654Z,33.85
2023-05-17T17:52:09.306Z,34.25
2023-05-17T17:54:36.106Z,33.72
2023-05-17T17:57:05.732Z,34.06
2023-05-17T17:59:32.528Z,34.62
2023-05-17T18:02:02.159Z,33.99
2023-05-17T18:04:28.988Z,34.70
2023-05-17T18:06:55.832Z,35.29
2023-05-17T18:09:23.269Z,34.95
2023-05-17T18:11:49.967Z,35.51
2023-05-17T18:14:16.652Z,36.23
2023-05-17T18:16:43.430Z,36.59
2023-05-17T18:19:10.380Z,36.25
2023-05-17T18:21:37.074Z,36.41
2023-05-17T18:24:03.927Z,36.51
2023-05-17T18:26:30.608Z,36.76
2023-05-17T18:28:57.317Z,36.42
2023-05-17T18:31:24.026Z,36.62
2023-05-17T18:33:50.769Z,36.51
2023-05-17T18:36:17.493Z,36.80
2023-05-17T18:38:44.575Z,36.67
2023-05-17T18:41:11.261Z,36.85
2023-05-17T18:43:37.961Z,37.71
2023-05-17T18:46:04.639Z,37.62
2023-05-17T18:48:35.949Z,37.63
2023-05-17T18:51:02.992Z,37.69
2023-05-17T18:53:29.963Z,37.57
2023-05-17T18:56:01.332Z,37.97
2023-05-17T18:58:29.407Z,38.37
2023-05-17T19:00:56.479Z,38.30
2023-05-17T19:03:23.187Z,38.38
2023-05-17T19:05:49.872Z,38.99
2023-05-17T19:08:16.586Z,39.42
2023-05-17T19:10:43.340Z,39.42
2023-05-17T19:13:10.909Z,40.02
2023-05-17T19:15:37.679Z,40.30
2023-05-17T19:18:04.447Z,40.61
2023-05-17T19:20:34.247Z,40.51
2023-05-17T19:23:01.007Z,41.71
2023-05-17T19:25:28.518Z,42.16
2023-05-17T19:27:57.928Z,42.72
2023-05-17T19:30:24.676Z,42.82
2023-05-17T19:32:51.541Z,43.61
2023-05-17T19:35:18.338Z,43.61
2023-05-17T19:37:45.037Z,43.86
2023-05-17T19:40:12.282Z,44.28
2023-05-17T19:42:39.620Z,44.05
2023-05-17T19:45:09.390Z,44.18
2023-05-17T19:47:36.188Z,44.28
2023-05-17T19:50:02.943Z,44.33
2023-05-17T19:52:29.713Z,44.94
2023-05-17T19:54:56.639Z,44.89
2023-05-17T19:57:23.546Z,44.69
2023-05-17T19:59:52.186Z,44.98
2023-05-17T20:02:19.399Z,45.41
2023-05-17T20:04:46.694Z,45.14
2023-05-17T20:07:13.433Z,45.76
2023-05-17T20:09:40.199Z,46.22
2023-05-17T20:12:07.338Z,46.00
2023-05-17T20:14:34.101Z,46.24
2023-05-17T20:17:00.865Z,46.13
2023-05-17T20:19:27.643Z,46.28
2023-05-17T20:21:54.386Z,46.49
2023-05-17T20:24:23.285Z,46.93
2023-05-17T20:26:50.112Z,47.12
2023-05-17T20:29:16.883Z,47.83
2023-05-17T20:31:43.640Z,47.27
2023-05-17T20:34:10.865Z,47.27
2023-05-17T20:36:37.566Z,47.09
2023-05-17T20:39:04.229Z,47.17
2023-05-17T20:41:30.951Z,47.66
2023-05-17T20:43:57.628Z,47.55
2023-05-17T20:46:24.300Z,47.68
2023-05-17T20:48:51.108Z,47.00
2023-05-17T20:51:18.578Z,47.38
2023-05-17T20:53:46.520Z,47.59
2023-05-17T20:56:14.191Z,47.68
2023-05-17T20:58:41.331Z,48.09
2023-05-17T21:01:08.171Z,47.50
2023-05-17T21:03:35.058Z,47.98
2023-05-17T21:06:02.333Z,47.90
2023-05-17T21:08:29.117Z,47.19
2023-05-17T21:10:56.152Z,47.62
2023-05-17T21:13:25.723Z,47.25
2023-05-17T21:15:53.974Z,48.13
2023-05-17T21:18:21.085Z,47.74
2023-05-17T21:20:49.811Z,47.63
2023-05-17T21:23:17.017Z,47.20
2023-05-17T21:25:44.440Z,47.21
2023-05-17T21:28:11.184Z,47.63
2023-05-17T21:30:37.903Z,47.54
2023-05-17T21:33:05.604Z,47.81
2023-05-17T21:35:32.702Z,47.99
2023-05-17T21:37:59.508Z,47.68
2023-05-17T21:40:26.363Z,47.67
2023-05-17T21:42:53.233Z,48.37
2023-05-17T21:45:20.037Z,47.78
2023-05-17T21:47:46.861Z,48.12
2023-05-17T21:50:13.822Z,48.21
2023-05-17T21:52:40.567Z,48.25
2023-05-17T21:55:07.861Z,48.47
2023-05-17T21:57:36.443Z,49.07
2023-05-17T22:00:07.921Z,48.48
2023-05-17T22:02:35.861Z,48.78
2023-05-17T22:05:02.902Z,48.78
2023-05-17T22:07:29.893Z,48.95
2023-05-17T22:09:58.294Z,48.96
2023-05-17T22:12:26.146Z,49.22
2023-05-17T22:14:55.756Z,49.06
2023-05-17T22:17:39.397Z,49.41
2023-05-17T22:20:17.100Z,49.78
2023-05-17T22:22:44.138Z,49.75
2023-05-17T22:25:10.956Z,50.16
2023-05-17T22:27:37.623Z,50.08
2023-05-17T22:30:04.829Z,50.13
2023-05-17T22:32:31.959Z,49.92
2023-05-17T22:34:58.687Z,49.88
2023-05-17T22:37:25.417Z,49.96
2023-05-17T22:39:52.097Z,50.23
2023-05-17T22:42:18.805Z,50.42
2023-05-17T22:44:45.672Z,50.66
2023-05-17T22:47:14.922Z,50.89
2023-05-17T22:49:42.188Z,51.00
2023-05-17T22:52:10.961Z,51.12
2023-05-17T22:54:38.473Z,51.13
2023-05-17T22:57:05.915Z,51.42
2023-05-17T22:59:33.195Z,51.23
2023-05-17T23:02:01.264Z,51.23
2023-05-17T23:04:30.328Z,51.30
2023-05-17T23:07:02.233Z,51.46
2023-05-17T23:09:30.030Z,51.62
2023-05-17T23:11:57.433Z,52.00
2023-05-17T23:14:24.165Z,52.16
2023-05-17T23:16:50.876Z,52.20
2023-05-17T23:19:18.113Z,52.27
2023-05-17T23:21:46.293Z,52.47
2023-05-17T23:24:13.971Z,52.54
2023-05-17T23:26:41.284Z,52.89
2023-05-17T23:29:10.607Z,52.53
2023-05-17T23:31:37.763Z,52.81
2023-05-17T23:34:06.791Z,52.77
2023-05-17T23:36:33.681Z,53.11
2023-05-17T23:39:00.500Z,52.91
2023-05-17T23:41:29.359Z,52.87
2023-05-17T23:43:57.039Z,52.90
2023-05-17T23:46:24.091Z,52.67
2023-05-17T23:48:50.914Z,52.34
2023-05-17T23:51:20.564Z,52.36
2023-05-17T23:53:48.762Z,52.47
2023-05-17T23:56:17.152Z,52.36
2023-05-17T23:58:47.277Z,52.12
